Hazel, South Dakota
Current Conditions -  °F | °C
As of 9:53 AM on Friday 21 Nov 2014 (Local Time) from KATY Reporting Station
Clear Clear  
Wind Chill:   Ceiling: Unl
Heat Index: 22°   Visibility: 7mi
Dew Point: 17°   Wind: 20mph
Humidity: 82%   Direction: 190°S
Pressure: 29.91"   Gusts: 31mph
Location:  44.76°N, 97.38°W
Report Text: KATY 211553Z AUTO 19017G27KT 7SM CLR M06/M08 A2991 RMK AO2 PK WND 20027/1549 SLP162 T10561083
Loading
Personal Weather Stations






























Interactive Weather Map New forecast layout! Learn more

10-Day Weather Forecast

Advertisements
Track Severe Weather on mobile